Time;durP1;ratioP1;P1;durP2;ratioP2;P2;SDS_P1;SDS_P2;PMS_P1;PMS_P2;Temp;Humidity;BMP_temperature;BMP_pressure;BME280_temperature;BME280_humidity;BME280_pressure;Samples;Min_cycle;Max_cycle;Signal;HPM_P1;HPM_P2
2022/05/17 00:00:38;;;;;;;24.03;7.70;;;15.00;99.90;;;;;;4958749;28;20043;-75
2022/05/17 00:03:04;;;;;;;18.05;8.52;;;;;;;;;;4959188;28;20065;-74
2022/05/17 00:05:31;;;;;;;26.00;7.70;;;14.90;99.90;;;;;;4957826;28;20125;-74
2022/05/17 00:07:57;;;;;;;22.23;8.00;;;14.80;99.90;;;;;;4957544;28;20054;-75
2022/05/17 00:10:24;;;;;;;17.35;7.78;;;14.80;99.90;;;;;;4956179;29;20293;-74
2022/05/17 00:12:53;;;;;;;20.67;7.70;;;14.70;99.90;;;;;;4956344;29;20459;-74
2022/05/17 00:15:20;;;;;;;17.15;7.35;;;14.70;99.90;;;;;;4956324;28;20059;-74
2022/05/17 00:17:48;;;;;;;17.55;7.82;;;14.60;99.90;;;;;;4956117;28;20576;-75
2022/05/17 00:20:14;;;;;;;19.42;8.15;;;14.60;99.90;;;;;;4956417;29;20047;-75
2022/05/17 00:22:41;;;;;;;22.02;8.15;;;14.50;99.90;;;;;;4955352;29;20055;-75
2022/05/17 00:25:09;;;;;;;20.48;7.65;;;14.50;99.90;;;;;;4956187;29;20103;-74
2022/05/17 00:27:35;;;;;;;20.92;7.50;;;14.40;99.90;;;;;;4956347;28;20082;-74
2022/05/17 00:30:01;;;;;;;19.17;7.43;;;14.40;99.90;;;;;;4956417;29;20146;-75
2022/05/17 00:32:27;;;;;;;20.80;8.90;;;14.30;99.90;;;;;;4955091;29;20047;-74
2022/05/17 00:34:53;;;;;;;23.02;7.38;;;14.30;99.90;;;;;;4954548;29;20471;-75
2022/05/17 00:37:20;;;;;;;14.88;7.22;;;14.30;99.90;;;;;;4955618;29;20083;-75
2022/05/17 00:39:45;;;;;;;;;;;14.20;99.90;;;;;;4956629;29;20055;-75
2022/05/17 00:42:11;;;;;;;23.47;8.37;;;14.20;99.90;;;;;;4954974;29;19929;-76
2022/05/17 00:44:42;;;;;;;19.77;7.35;;;14.10;99.90;;;;;;4954875;29;20054;-75
2022/05/17 00:47:20;;;;;;;22.85;8.18;;;14.10;99.90;;;;;;4956197;29;20035;-75
2022/05/17 00:49:50;;;;;;;20.30;7.60;;;14.10;99.90;;;;;;4956335;28;20149;-75
2022/05/17 00:52:45;;;;;;;17.40;8.27;;;14.10;99.90;;;;;;4956629;28;20070;-77
2022/05/17 00:55:43;;;;;;;23.05;7.75;;;14.10;99.90;;;;;;4955777;29;20039;-75
2022/05/17 00:58:11;;;;;;;20.35;7.47;;;14.00;99.90;;;;;;4951702;29;20051;-75
2022/05/17 01:00:43;;;;;;;23.27;7.45;;;13.90;99.90;;;;;;4954814;29;20371;-74
2022/05/17 01:03:12;;;;;;;21.95;8.07;;;13.90;99.90;;;;;;4955736;29;20392;-75
2022/05/17 01:05:44;;;;;;;19.67;7.22;;;13.90;99.90;;;;;;4954707;28;20044;-75
2022/05/17 01:08:13;;;;;;;24.90;7.82;;;13.80;99.90;;;;;;4953868;29;20122;-76
2022/05/17 01:10:39;;;;;;;18.17;7.63;;;13.80;99.90;;;;;;4954187;29;20043;-77
2022/05/17 01:15:50;;;;;;;17.60;7.60;;;13.70;99.90;;;;;;4955491;29;20566;-76
2022/05/17 01:18:16;;;;;;;20.88;7.10;;;13.70;99.90;;;;;;4955174;28;20048;-74
2022/05/17 01:20:43;;;;;;;24.08;7.18;;;13.70;99.90;;;;;;4973098;28;20051;-75
2022/05/17 01:23:08;;;;;;;21.25;7.43;;;13.60;99.90;;;;;;4954757;29;20082;-76
2022/05/17 01:25:35;;;;;;;19.30;7.25;;;13.60;99.90;;;;;;4954517;29;20087;-76
2022/05/17 01:28:11;;;;;;;19.80;7.60;;;13.60;99.90;;;;;;4953670;28;20057;-75
2022/05/17 01:30:37;;;;;;;19.42;7.10;;;13.60;99.90;;;;;;4954713;29;20058;-76
2022/05/17 01:33:03;;;;;;;21.13;6.63;;;13.60;99.90;;;;;;4954155;29;20051;-76
2022/05/17 01:35:29;;;;;;;22.75;7.45;;;13.50;99.90;;;;;;4953805;29;20106;-76
2022/05/17 01:37:56;;;;;;;20.08;7.10;;;13.50;99.90;;;;;;4969841;28;20484;-75
2022/05/17 01:40:23;;;;;;;21.20;8.30;;;13.50;99.90;;;;;;4969674;28;20043;-76
2022/05/17 01:42:49;;;;;;;22.95;7.13;;;13.40;99.90;;;;;;4969329;28;20504;-76
2022/05/17 01:45:15;;;;;;;25.48;8.75;;;13.50;99.90;;;;;;4953403;29;20133;-75
2022/05/17 01:47:41;;;;;;;18.17;7.30;;;13.40;99.90;;;;;;4969320;28;20070;-75
2022/05/17 01:50:07;;;;;;;23.63;9.00;;;13.40;99.90;;;;;;4954958;29;20051;-75
2022/05/17 01:52:33;;;;;;;20.77;7.65;;;13.40;99.90;;;;;;4954778;28;20483;-75
2022/05/17 01:54:59;;;;;;;27.63;7.90;;;13.40;99.90;;;;;;4953396;29;20129;-76
2022/05/17 01:57:25;;;;;;;22.98;7.50;;;13.30;99.90;;;;;;4953311;29;20046;-76
2022/05/17 01:59:51;;;;;;;19.67;7.75;;;13.30;99.90;;;;;;4955181;29;20436;-76
2022/05/17 02:02:16;;;;;;;24.08;8.82;;;13.20;99.90;;;;;;4955018;28;20050;-76
2022/05/17 02:04:42;;;;;;;27.98;8.88;;;13.20;99.90;;;;;;4954317;28;20515;-76
2022/05/17 02:07:08;;;;;;;28.48;8.98;;;13.20;99.90;;;;;;4953951;29;20158;-78
2022/05/17 02:09:34;;;;;;;21.13;8.82;;;13.20;99.90;;;;;;4954791;28;20055;-76
2022/05/17 02:12:00;;;;;;;22.70;8.38;;;13.20;99.90;;;;;;4954249;29;20047;-76
2022/05/17 02:14:26;;;;;;;21.02;8.88;;;13.20;99.90;;;;;;4955022;28;20062;-76
2022/05/17 02:16:51;;;;;;;31.15;8.95;;;13.30;99.90;;;;;;4954525;28;20062;-75
2022/05/17 02:19:19;;;;;;;29.33;9.88;;;13.40;99.90;;;;;;4955094;28;20090;-75
2022/05/17 02:21:49;;;;;;;27.25;9.02;;;13.30;99.90;;;;;;4939136;29;20051;-77
2022/05/17 02:24:15;;;;;;;23.75;9.85;;;13.30;99.90;;;;;;4954690;29;20081;-76
2022/05/17 02:26:41;;;;;;;26.95;9.10;;;13.20;99.90;;;;;;4956794;28;20047;-77
2022/05/17 02:29:08;;;;;;;29.75;8.82;;;13.30;99.90;;;;;;4955763;29;20051;-76
2022/05/17 02:31:34;;;;;;;26.70;9.75;;;13.30;99.90;;;;;;4958753;29;20118;-75
2022/05/17 02:34:00;;;;;;;32.30;9.30;;;13.20;99.90;;;;;;4971007;28;20055;-76
2022/05/17 02:36:26;;;;;;;22.15;8.60;;;13.20;99.90;;;;;;4956402;29;20058;-75
2022/05/17 02:38:52;;;;;;;23.58;8.80;;;13.10;99.90;;;;;;4956890;28;20173;-77
2022/05/17 02:41:19;;;;;;;28.45;8.93;;;13.10;99.90;;;;;;4958044;29;20043;-74
2022/05/17 02:43:45;;;;;;;20.25;8.63;;;13.10;99.90;;;;;;4962078;28;20058;-76
2022/05/17 02:46:12;;;;;;;22.80;8.48;;;13.00;99.90;;;;;;4958607;29;20043;-74
2022/05/17 02:48:38;;;;;;;25.35;9.10;;;13.00;99.90;;;;;;4957332;29;20512;-77
2022/05/17 02:51:14;;;;;;;23.65;9.50;;;12.90;99.90;;;;;;4956634;29;20043;-76
2022/05/17 02:53:40;;;;;;;25.08;8.50;;;12.90;99.90;;;;;;4957424;28;20365;-77
2022/05/17 02:56:07;;;;;;;27.70;9.20;;;12.90;99.90;;;;;;4957902;28;20050;-76
2022/05/17 02:58:33;;;;;;;22.55;8.88;;;12.90;99.90;;;;;;4957646;29;20036;-77
2022/05/17 03:00:59;;;;;;;24.77;9.00;;;12.80;99.90;;;;;;4957638;28;20051;-76
2022/05/17 03:03:25;;;;;;;20.27;8.73;;;12.80;99.90;;;;;;4957404;28;20047;-76
2022/05/17 03:05:51;;;;;;;23.80;10.20;;;12.80;99.90;;;;;;4956356;29;20058;-76
2022/05/17 03:08:17;;;;;;;25.38;8.93;;;12.70;99.90;;;;;;4955956;29;20047;-77
2022/05/17 03:10:43;;;;;;;21.38;8.45;;;12.70;99.90;;;;;;4956854;29;20047;-76
2022/05/17 03:13:13;;;;;;;20.65;8.32;;;12.60;99.90;;;;;;4954967;29;20070;-76
2022/05/17 03:15:40;;;;;;;28.73;8.75;;;12.60;99.90;;;;;;4954613;29;20047;-77
2022/05/17 03:18:05;;;;;;;23.85;8.43;;;12.60;99.90;;;;;;4955302;29;20387;-79
2022/05/17 03:20:32;;;;;;;28.10;9.50;;;12.60;99.90;;;;;;4954524;29;20198;-76
2022/05/17 03:22:57;;;;;;;21.15;9.23;;;12.60;99.90;;;;;;4939919;29;20047;-77
2022/05/17 03:25:24;;;;;;;28.08;9.25;;;12.60;99.90;;;;;;4955045;29;20054;-75
2022/05/17 03:27:54;;;;;;;23.83;9.30;;;12.50;99.90;;;;;;4955383;29;20392;-76
2022/05/17 03:30:20;;;;;;;22.30;8.32;;;12.50;99.90;;;;;;4959248;28;20165;-76
2022/05/17 03:32:46;;;;;;;29.63;8.75;;;12.50;99.90;;;;;;4962108;28;20047;-76
2022/05/17 03:35:12;;;;;;;26.30;8.88;;;12.50;99.90;;;;;;4962306;29;20129;-77
2022/05/17 03:37:38;;;;;;;26.67;8.38;;;12.50;99.90;;;;;;4945218;29;20043;-76
2022/05/17 03:40:05;;;;;;;27.27;9.30;;;12.50;99.90;;;;;;4960766;29;20097;-76
2022/05/17 03:42:31;;;;;;;27.40;9.13;;;12.40;99.90;;;;;;4959612;29;20562;-75
2022/05/17 03:44:57;;;;;;;23.52;9.07;;;12.50;99.90;;;;;;4961506;29;20138;-78
2022/05/17 03:47:22;;;;;;;21.92;8.55;;;12.50;99.90;;;;;;4977098;28;20137;-77
2022/05/17 03:49:48;;;;;;;21.85;8.70;;;12.50;99.90;;;;;;4962556;29;20043;-77
2022/05/17 03:52:14;;;;;;;24.42;8.95;;;12.50;99.90;;;;;;4961947;29;20136;-77
2022/05/17 03:54:40;;;;;;;26.23;9.05;;;12.50;99.90;;;;;;4963637;28;20094;-75
2022/05/17 03:57:07;;;;;;;29.92;9.65;;;12.60;99.90;;;;;;4963114;29;20081;-76
2022/05/17 03:59:33;;;;;;;23.17;8.63;;;12.60;99.90;;;;;;4963006;29;20099;-76
2022/05/17 04:01:58;;;;;;;29.85;9.43;;;12.60;99.90;;;;;;4960823;29;20435;-76
2022/05/17 04:04:25;;;;;;;28.45;9.50;;;12.70;99.90;;;;;;4961385;28;20051;-77
2022/05/17 04:06:51;;;;;;;31.73;9.48;;;12.70;99.90;;;;;;4962776;29;20043;-76
2022/05/17 04:09:16;;;;;;;22.55;8.68;;;12.80;99.90;;;;;;4960299;29;20059;-76
2022/05/17 04:11:42;;;;;;;29.10;9.73;;;12.80;99.90;;;;;;4958422;29;20051;-76
2022/05/17 04:14:08;;;;;;;22.63;9.40;;;12.80;99.90;;;;;;4959868;28;20138;-77
2022/05/17 04:16:37;;;;;;;22.80;9.03;;;12.90;99.90;;;;;;4957617;29;20067;-75
2022/05/17 04:19:03;;;;;;;23.75;9.20;;;13.00;99.90;;;;;;4959673;28;20122;-76
2022/05/17 04:21:31;;;;;;;24.05;8.48;;;13.10;99.90;;;;;;4960087;29;20057;-75
2022/05/17 04:23:57;;;;;;;25.55;10.02;;;13.10;99.90;;;;;;4959259;28;20047;-78
2022/05/17 04:26:23;;;;;;;20.67;8.00;;;13.20;99.90;;;;;;4959323;28;20053;-77
2022/05/17 04:28:50;;;;;;;20.55;9.30;;;13.30;99.90;;;;;;4959524;29;20490;-77
2022/05/17 04:31:16;;;;;;;18.65;8.43;;;13.50;99.90;;;;;;4957770;29;20043;-75
2022/05/17 04:33:42;;;;;;;23.03;7.80;;;13.60;99.90;;;;;;4956266;29;20050;-77
2022/05/17 04:36:09;;;;;;;22.47;8.40;;;13.60;99.90;;;;;;4957060;29;20287;-77
2022/05/17 04:38:35;;;;;;;20.35;7.75;;;13.70;99.90;;;;;;4955101;29;20302;-77
2022/05/17 04:41:01;;;;;;;28.87;8.47;;;13.90;99.90;;;;;;4956361;28;20101;-75
2022/05/17 04:43:26;;;;;;;19.45;7.38;;;14.00;99.90;;;;;;4955695;29;20423;-75
2022/05/17 04:45:54;;;;;;;19.83;7.45;;;14.00;99.90;;;;;;4954900;29;20058;-77
2022/05/17 04:48:24;;;;;;;22.52;7.47;;;14.10;99.90;;;;;;4956126;29;20047;-78
2022/05/17 04:50:50;;;;;;;21.38;7.70;;;14.10;99.90;;;;;;4956375;28;20058;-77
2022/05/17 04:53:16;;;;;;;23.08;8.23;;;14.10;99.90;;;;;;4956662;28;20094;-78
2022/05/17 04:55:42;;;;;;;20.25;7.20;;;14.20;99.90;;;;;;4955896;29;20402;-77
2022/05/17 04:58:07;;;;;;;25.33;8.23;;;14.20;99.90;;;;;;4955659;29;20122;-77
2022/05/17 05:00:34;;;;;;;20.95;7.50;;;14.30;99.90;;;;;;4955633;29;20055;-74
2022/05/17 05:03:01;;;;;;;22.27;7.72;;;14.40;99.90;;;;;;4955760;29;20050;-77
2022/05/17 05:05:27;;;;;;;;;;;14.50;99.90;;;;;;4955383;29;20138;-76
2022/05/17 05:07:53;;;;;;;18.23;7.72;;;14.70;99.90;;;;;;4954915;29;19941;-77
2022/05/17 05:10:20;;;;;;;22.35;7.72;;;14.70;99.90;;;;;;4955368;29;20504;-76
2022/05/17 05:12:45;;;;;;;18.13;7.13;;;14.90;99.90;;;;;;4954795;29;20487;-77
2022/05/17 05:15:12;;;;;;;16.90;7.30;;;15.00;99.90;;;;;;4970938;28;20074;-77
2022/05/17 05:17:39;;;;;;;17.45;7.03;;;15.20;99.90;;;;;;4956161;29;20043;-79
2022/05/17 05:20:08;;;;;;;25.30;7.95;;;15.30;99.90;;;;;;4955531;29;20063;-79
2022/05/17 05:22:34;;;;;;;19.98;8.15;;;15.40;99.90;;;;;;4955653;29;20047;-78
2022/05/17 05:25:01;;;;;;;17.23;6.75;;;15.50;99.90;;;;;;4938900;29;20139;-79
2022/05/17 05:27:32;;;;;;;18.63;7.30;;;15.60;99.90;;;;;;4955563;29;20539;-77
2022/05/17 05:29:57;;;;;;;20.13;6.85;;;15.70;99.90;;;;;;4938984;29;20368;-77
2022/05/17 05:32:24;;;;;;;15.05;5.97;;;15.90;99.90;;;;;;4955458;28;20098;-78
2022/05/17 05:34:49;;;;;;;19.27;5.82;;;16.10;99.90;;;;;;4956002;29;20047;-77
2022/05/17 05:37:16;;;;;;;19.05;6.22;;;16.20;99.90;;;;;;4955977;29;20053;-77
2022/05/17 05:39:41;;;;;;;15.50;5.55;;;16.20;99.90;;;;;;4955635;29;20069;-78
2022/05/17 05:42:07;;;;;;;20.98;5.65;;;16.20;99.90;;;;;;4938843;29;20062;-78
2022/05/17 05:44:34;;;;;;;16.50;6.03;;;16.20;99.90;;;;;;4955029;29;20053;-76
2022/05/17 05:47:00;;;;;;;;;;;16.20;99.90;;;;;;4955511;29;20122;-77
2022/05/17 05:49:25;;;;;;;17.37;6.00;;;16.20;99.90;;;;;;4954510;28;19973;-78
2022/05/17 05:51:51;;;;;;;19.65;6.55;;;16.20;99.90;;;;;;4954878;28;20391;-78
2022/05/17 05:54:17;;;;;;;20.10;5.97;;;16.20;99.90;;;;;;4970975;28;20126;-76
2022/05/17 05:56:43;;;;;;;17.37;5.40;;;16.20;99.90;;;;;;4955557;29;20109;-79
2022/05/17 05:59:09;;;;;;;15.40;5.80;;;16.10;99.90;;;;;;4955737;28;20073;-77
2022/05/17 06:01:36;;;;;;;21.55;5.88;;;16.20;99.90;;;;;;4954911;28;20045;-77
2022/05/17 06:04:02;;;;;;;15.27;5.83;;;16.20;99.90;;;;;;4954196;29;20047;-78
2022/05/17 06:06:28;;;;;;;18.95;5.95;;;16.30;99.90;;;;;;4955313;29;20310;-77
2022/05/17 06:08:55;;;;;;;16.58;5.88;;;16.30;99.90;;;;;;4953289;29;20093;-79
2022/05/17 06:11:21;;;;;;;17.00;5.57;;;16.40;99.90;;;;;;4954011;29;20098;-77
2022/05/17 06:13:47;;;;;;;18.87;5.47;;;16.40;99.90;;;;;;4969659;28;20059;-79
2022/05/17 06:16:13;;;;;;;18.08;5.60;;;16.40;99.90;;;;;;4954220;29;20133;-77
2022/05/17 06:18:39;;;;;;;13.27;5.15;;;16.40;99.90;;;;;;4954789;29;20492;-78
2022/05/17 06:21:05;;;;;;;20.20;5.50;;;16.50;99.90;;;;;;4954750;28;20395;-78
2022/05/17 06:23:32;;;;;;;17.67;5.27;;;16.60;99.90;;;;;;4953765;29;20291;-76
2022/05/17 06:25:58;;;;;;;20.67;5.38;;;16.60;99.90;;;;;;4954891;28;20436;-78
2022/05/17 06:28:24;;;;;;;14.80;5.25;;;16.60;99.90;;;;;;4955133;29;20051;-78
2022/05/17 06:30:50;;;;;;;17.00;4.90;;;16.60;99.90;;;;;;4954880;28;20500;-78
2022/05/17 06:33:16;;;;;;;12.75;4.40;;;16.70;99.90;;;;;;4953244;29;20484;-79
2022/05/17 06:35:44;;;;;;;15.55;4.93;;;16.60;99.90;;;;;;4954600;28;20070;-77
2022/05/17 06:38:11;;;;;;;18.45;4.65;;;16.70;99.90;;;;;;4969965;28;20452;-78
2022/05/17 06:40:38;;;;;;;18.67;4.63;;;16.80;99.90;;;;;;4969816;28;20058;-77
2022/05/17 06:43:04;;;;;;;14.50;4.93;;;16.80;99.90;;;;;;4955117;29;20051;-77
2022/05/17 06:45:31;;;;;;;13.43;4.70;;;16.80;99.90;;;;;;4953303;29;20062;-76
2022/05/17 06:47:56;;;;;;;11.57;4.63;;;16.80;99.90;;;;;;4953771;29;20051;-77
2022/05/17 06:50:22;;;;;;;17.17;5.18;;;16.90;99.90;;;;;;4952909;29;20191;-77
2022/05/17 06:52:48;;;;;;;14.27;4.43;;;16.90;99.90;;;;;;4953720;29;20054;-78
2022/05/17 06:55:14;;;;;;;12.63;4.72;;;17.00;99.90;;;;;;4937343;29;20059;-78
2022/05/17 06:57:40;;;;;;;15.23;5.30;;;17.10;99.90;;;;;;4953116;28;20506;-78
2022/05/17 07:00:08;;;;;;;14.80;4.53;;;17.20;99.90;;;;;;4954124;29;20046;-79
2022/05/17 07:02:35;;;;;;;15.90;4.25;;;17.30;99.90;;;;;;4953750;29;20090;-77
2022/05/17 07:05:01;;;;;;;16.38;5.55;;;17.30;99.90;;;;;;4956986;28;20089;-80
2022/05/17 07:07:27;;;;;;;18.27;4.93;;;17.40;99.90;;;;;;4959479;29;20047;-78
2022/05/17 07:15:21;;;;;;;19.17;4.63;;;17.60;99.90;;;;;;4958328;28;20054;-75
2022/05/17 07:17:47;;;;;;;13.63;4.33;;;17.70;99.90;;;;;;4957844;28;20047;-78
2022/05/17 07:20:14;;;;;;;24.67;3.70;;;17.80;99.90;;;;;;4957094;29;20065;-78
2022/05/17 07:22:40;;;;;;;13.32;4.50;;;17.90;99.90;;;;;;4956869;29;20059;-78
2022/05/17 07:25:06;;;;;;;15.85;4.82;;;18.00;99.90;;;;;;4957020;28;20047;-78
2022/05/17 07:27:33;;;;;;;18.67;4.40;;;18.00;99.90;;;;;;4957416;29;20055;-77
2022/05/17 07:29:58;;;;;;;14.07;4.37;;;17.90;99.90;;;;;;4956968;29;20047;-79
2022/05/17 07:32:24;;;;;;;16.33;5.20;;;18.00;99.90;;;;;;4972279;28;20291;-79
2022/05/17 07:34:50;;;;;;;13.10;4.43;;;18.10;99.90;;;;;;4956210;29;20051;-79
2022/05/17 07:37:16;;;;;;;16.52;4.43;;;18.20;99.90;;;;;;4956234;29;20298;-79
2022/05/17 07:39:42;;;;;;;21.60;5.20;;;18.30;99.90;;;;;;4940611;29;20441;-79
2022/05/17 07:42:09;;;;;;;19.77;5.23;;;18.50;99.90;;;;;;4957411;29;20054;-78
2022/05/17 07:44:35;;;;;;;15.38;5.15;;;18.50;99.90;;;;;;4956633;29;20539;-77
2022/05/17 07:47:02;;;;;;;21.53;5.90;;;18.50;99.90;;;;;;4971997;28;20281;-78
2022/05/17 07:49:28;;;;;;;13.43;4.88;;;18.40;99.90;;;;;;4956397;29;20350;-79
2022/05/17 07:51:54;;;;;;;13.73;5.00;;;18.40;99.90;;;;;;4956040;29;20145;-76
2022/05/17 07:54:20;;;;;;;18.08;5.22;;;18.60;99.90;;;;;;4955782;29;20059;-77
2022/05/17 07:56:46;;;;;;;16.10;5.20;;;18.60;99.90;;;;;;4940931;29;20154;-79
2022/05/17 07:59:11;;;;;;;16.53;5.00;;;18.70;99.90;;;;;;4971990;28;20542;-77
2022/05/17 08:01:37;;;;;;;14.40;4.37;;;18.80;99.90;;;;;;4956170;29;20134;-77
2022/05/17 08:04:03;;;;;;;14.13;4.70;;;18.90;99.90;;;;;;4956132;29;20134;-79
2022/05/17 08:06:29;;;;;;;16.77;4.78;;;19.10;99.90;;;;;;4957116;29;20051;-78
2022/05/17 08:08:55;;;;;;;18.40;5.77;;;19.20;99.90;;;;;;4956148;29;20135;-78
2022/05/17 08:11:23;;;;;;;17.85;4.47;;;19.40;99.90;;;;;;4957830;29;20043;-77
2022/05/17 08:13:48;;;;;;;21.52;4.85;;;19.60;99.90;;;;;;4957309;28;20102;-78
2022/05/17 08:16:14;;;;;;;16.73;4.23;;;19.70;99.90;;;;;;4955704;28;20055;-77
2022/05/17 08:18:40;;;;;;;14.77;4.50;;;19.80;99.90;;;;;;4972150;28;20043;-78
2022/05/17 08:21:07;;;;;;;14.50;4.10;;;19.70;99.90;;;;;;4956303;29;20054;-78
2022/05/17 08:23:33;;;;;;;16.27;4.05;;;19.80;99.90;;;;;;4956470;29;20126;-79
2022/05/17 08:28:43;;;;;;;14.43;3.50;;;19.90;99.90;;;;;;4962123;29;20047;-76
2022/05/17 08:31:10;;;;;;;11.93;2.80;;;20.10;99.90;;;;;;4944745;29;20204;-75
2022/05/17 08:33:38;;;;;;;15.13;3.17;;;20.10;99.90;;;;;;4964100;29;20082;-77
2022/05/17 08:36:13;;;;;;;14.65;3.38;;;20.10;99.90;;;;;;4963445;28;20066;-78
2022/05/17 08:38:41;;;;;;;13.40;2.35;;;20.10;99.90;;;;;;4964293;28;20043;-78
2022/05/17 08:41:19;;;;;;;12.20;2.45;;;20.20;99.90;;;;;;4962680;28;20043;-78
2022/05/17 08:44:00;;;;;;;8.95;2.20;;;20.10;99.90;;;;;;4961075;28;20108;-77
2022/05/17 08:46:45;;;;;;;11.40;2.45;;;20.10;99.90;;;;;;4960302;29;20048;-78
2022/05/17 08:49:44;;;;;;;14.55;2.85;;;20.30;99.90;;;;;;4960689;28;20047;-77
2022/05/17 08:52:17;;;;;;;12.00;2.28;;;20.30;99.90;;;;;;4958695;29;20047;-77
2022/05/17 08:54:55;;;;;;;11.63;2.13;;;20.20;99.90;;;;;;4959460;29;20185;-79
2022/05/17 08:57:43;;;;;;;10.82;2.15;;;20.40;99.90;;;;;;4959058;28;20051;-77
2022/05/17 09:00:29;;;;;;;11.63;1.60;;;20.50;99.90;;;;;;4957249;29;20062;-77
2022/05/17 09:03:00;;;;;;;8.93;1.20;;;20.50;99.90;;;;;;4956735;28;20150;-79
2022/05/17 09:05:48;;;;;;;7.47;1.15;;;20.60;99.90;;;;;;4956025;29;20047;-77
2022/05/17 09:08:41;;;;;;;11.18;1.58;;;20.60;99.90;;;;;;4956700;28;20054;-78
2022/05/17 09:11:35;;;;;;;9.70;1.35;;;20.60;99.90;;;;;;4956016;29;20451;-78
2022/05/17 09:14:16;;;;;;;10.70;1.40;;;20.60;99.90;;;;;;4955049;29;20121;-78
2022/05/17 09:16:47;;;;;;;14.48;1.40;;;20.80;99.90;;;;;;4956033;28;20055;-80
2022/05/17 09:19:16;;;;;;;10.95;1.60;;;20.90;99.90;;;;;;4958438;28;20083;-78
2022/05/17 09:21:49;;;;;;;9.73;1.30;;;21.00;99.90;;;;;;4962261;29;20047;-79
2022/05/17 09:24:18;;;;;;;10.23;1.42;;;21.20;99.90;;;;;;4940252;29;20051;-79
2022/05/17 09:27:12;;;;;;;8.75;1.30;;;21.20;99.90;;;;;;4954544;28;20121;-78
2022/05/17 09:29:46;;;;;;;9.38;1.75;;;21.20;99.90;;;;;;4955706;29;20091;-79
2022/05/17 09:32:23;;;;;;;9.98;1.77;;;21.30;99.90;;;;;;4971626;28;20094;-79
2022/05/17 09:35:00;;;;;;;8.80;1.55;;;21.20;99.90;;;;;;4954922;29;20051;-78
2022/05/17 09:37:36;;;;;;;8.05;1.38;;;21.30;99.90;;;;;;4954991;29;20094;-78
2022/05/17 09:40:06;;;;;;;6.60;1.13;;;21.50;99.90;;;;;;4956349;28;20055;-79
2022/05/17 09:42:42;;;;;;;10.52;1.40;;;21.40;99.90;;;;;;4955501;29;20137;-78
2022/05/17 09:45:15;;;;;;;12.43;1.50;;;21.60;99.90;;;;;;4956566;29;20054;-76
2022/05/17 09:48:00;;;;;;;8.52;0.90;;;21.90;99.90;;;;;;4956445;29;20129;-77
2022/05/17 09:53:21;;;;;;;13.40;1.83;;;22.10;99.90;;;;;;4956937;29;20142;-78
2022/05/17 09:55:56;;;;;;;15.80;2.70;;;21.60;99.90;;;;;;4956451;28;20051;-78
2022/05/17 09:58:32;;;;;;;10.43;2.55;;;21.80;99.90;;;;;;4954533;28;20047;-77
2022/05/17 10:00:59;;;;;;;10.80;1.65;;;22.10;99.90;;;;;;4970658;28;20084;-79
2022/05/17 10:03:27;;;;;;;;;;;22.30;99.90;;;;;;4957332;29;20163;-79
2022/05/17 10:05:59;;;;;;;12.90;2.17;;;22.40;99.90;;;;;;4956377;29;19930;-78
2022/05/17 10:08:37;;;;;;;18.38;2.03;;;22.50;99.90;;;;;;4955894;28;20058;-79
2022/05/17 10:11:17;;;;;;;9.68;2.17;;;22.20;99.90;;;;;;4954890;29;20424;-77
2022/05/17 10:13:45;;;;;;;12.98;2.30;;;22.20;99.90;;;;;;4953535;29;20412;-79
2022/05/17 10:16:17;;;;;;;9.57;1.83;;;22.10;99.90;;;;;;4954860;29;20400;-77
2022/05/17 10:18:54;;;;;;;11.32;1.80;;;21.90;99.90;;;;;;4955091;28;20050;-78
2022/05/17 10:21:32;;;;;;;11.38;1.40;;;21.90;99.90;;;;;;4970126;28;20189;-79
2022/05/17 10:24:16;;;;;;;11.55;1.40;;;22.00;99.90;;;;;;4970936;28;20055;-78
2022/05/17 10:26:57;;;;;;;11.30;0.93;;;21.80;99.90;;;;;;4969728;28;20063;-78
2022/05/17 10:29:40;;;;;;;10.20;1.20;;;21.80;99.90;;;;;;4954693;28;20333;-79
2022/05/17 10:32:19;;;;;;;9.65;1.20;;;21.60;99.90;;;;;;4954092;29;20118;-77
2022/05/17 10:34:55;;;;;;;13.35;1.33;;;21.60;99.90;;;;;;4953759;29;20138;-79
2022/05/17 10:37:46;;;;;;;13.32;1.20;;;21.50;99.90;;;;;;4969930;28;20126;-77
2022/05/17 10:40:30;;;;;;;9.02;1.23;;;21.30;99.90;;;;;;4955832;28;20121;-76
2022/05/17 10:42:57;;;;;;;10.05;1.00;;;21.30;99.90;;;;;;4958839;29;20122;-79
2022/05/17 10:45:32;;;;;;;8.65;1.73;;;21.40;99.90;;;;;;4958414;29;20051;-80
2022/05/17 10:48:04;;;;;;;14.38;2.90;;;21.70;99.90;;;;;;4958117;29;20490;-78
2022/05/17 10:51:14;;;;;;;14.10;2.45;;;22.00;99.90;;;;;;4958563;28;20071;-78
2022/05/17 10:53:58;;;;;;;16.88;3.78;;;22.30;99.90;;;;;;4948477;29;20063;-77
2022/05/17 10:56:31;;;;;;;14.23;3.60;;;22.50;99.90;;;;;;4973760;28;20051;-78
2022/05/17 10:59:23;;;;;;;17.33;2.90;;;22.60;99.90;;;;;;4957855;28;20098;-77
2022/05/17 11:02:18;;;;;;;13.98;2.63;;;22.20;99.90;;;;;;4958362;28;20133;-78
2022/05/17 11:05:05;;;;;;;13.43;3.00;;;22.40;99.90;;;;;;4957045;29;20518;-79
2022/05/17 11:07:54;;;;;;;15.95;4.03;;;22.60;99.90;;;;;;4957908;28;20491;-79
2022/05/17 11:10:55;;;;;;;16.20;4.15;;;22.50;99.90;;;;;;4959152;29;20047;-79
2022/05/17 11:13:27;;;;;;;18.55;4.43;;;22.70;99.90;;;;;;4958518;28;20090;-79
2022/05/17 11:16:07;;;;;;;16.23;4.82;;;22.80;99.90;;;;;;4958105;29;20550;-79
2022/05/17 11:19:05;;;;;;;16.77;4.90;;;22.90;99.90;;;;;;4958342;28;20051;-80
2022/05/17 11:21:37;;;;;;;17.90;5.45;;;23.00;99.90;;;;;;4942019;29;20055;-80
2022/05/17 11:24:24;;;;;;;14.25;4.97;;;23.00;99.90;;;;;;4958649;29;20055;-80
2022/05/17 11:27:08;;;;;;;19.20;5.53;;;23.10;99.90;;;;;;4961598;29;20051;-78
2022/05/17 11:29:59;;;;;;;18.63;5.03;;;22.90;99.90;;;;;;4959685;29;20057;-81
2022/05/17 11:32:33;;;;;;;15.77;5.43;;;22.60;99.90;;;;;;4959979;29;20429;-79
2022/05/17 11:35:04;;;;;;;16.33;4.93;;;22.00;99.90;;;;;;4959270;29;20059;-81
2022/05/17 11:37:33;;;;;;;16.73;5.18;;;22.30;99.90;;;;;;4960024;29;20077;-78
2022/05/17 11:40:01;;;;;;;17.70;5.85;;;22.40;99.90;;;;;;4960197;28;20495;-78
2022/05/17 11:42:35;;;;;;;17.40;5.80;;;22.60;99.90;;;;;;4958404;29;20057;-78
2022/05/17 11:45:23;;;;;;;18.42;5.30;;;22.50;99.90;;;;;;4958703;28;20069;-80
2022/05/17 11:47:52;;;;;;;14.23;5.05;;;22.60;99.90;;;;;;4957261;29;20054;-81
2022/05/17 11:50:19;;;;;;;16.35;5.43;;;22.70;99.90;;;;;;4955938;28;20130;-78
2022/05/17 11:52:54;;;;;;;18.75;5.43;;;22.70;99.90;;;;;;4958038;29;20202;-80
2022/05/17 11:55:26;;;;;;;20.15;5.40;;;22.40;99.90;;;;;;4957505;29;20122;-81
2022/05/17 11:57:51;;;;;;;16.92;5.50;;;22.30;99.90;;;;;;4957719;29;20480;-78
2022/05/17 12:00:23;;;;;;;21.50;4.80;;;22.40;99.90;;;;;;4956674;29;20134;-76
2022/05/17 12:02:54;;;;;;;16.67;5.00;;;22.20;99.90;;;;;;4957746;28;20090;-81
2022/05/17 12:05:38;;;;;;;13.93;4.93;;;22.40;99.90;;;;;;4957853;29;20047;-82
2022/05/17 12:08:28;;;;;;;16.77;5.05;;;22.30;99.90;;;;;;4957957;28;20047;-77
2022/05/17 12:11:15;;;;;;;14.55;4.68;;;22.20;99.90;;;;;;4957728;29;20138;-79
2022/05/17 12:14:07;;;;;;;16.23;5.28;;;22.20;99.90;;;;;;4955972;29;20059;-78
2022/05/17 12:16:34;;;;;;;15.40;5.00;;;22.10;99.90;;;;;;4958557;29;20106;-79
2022/05/17 12:19:47;;;;;;;15.05;4.85;;;22.00;99.90;;;;;;4957015;29;20063;-77
2022/05/17 12:22:20;;;;;;;16.88;5.22;;;22.00;99.90;;;;;;4948232;28;20111;-79
2022/05/17 12:25:12;;;;;;;15.20;4.70;;;22.00;99.90;;;;;;4958271;29;20171;-79
2022/05/17 12:27:46;;;;;;;13.23;4.53;;;21.80;99.90;;;;;;4954171;29;20507;-78
2022/05/17 12:33:22;;;;;;;16.17;4.40;;;22.10;99.90;;;;;;4958228;28;20059;-77
2022/05/17 12:35:50;;;;;;;14.48;4.47;;;22.10;99.90;;;;;;4958847;28;20043;-77
2022/05/17 12:44:11;;;;;;;14.43;4.18;;;22.10;99.90;;;;;;4945897;29;20424;-79
2022/05/17 12:46:37;;;;;;;;;;;22.20;99.90;;;;;;4968336;28;20098;-78
2022/05/17 12:49:17;;;;;;;;;;;22.20;99.90;;;;;;4972212;28;19926;-78
2022/05/17 12:51:49;;;;;;;13.52;3.50;;;22.20;99.90;;;;;;4975032;28;19985;-76
2022/05/17 12:54:20;;;;;;;17.73;3.78;;;22.30;99.90;;;;;;4975031;29;20055;-79
2022/05/17 12:56:47;;;;;;;14.90;4.13;;;22.30;99.90;;;;;;4972645;29;20059;-79
2022/05/17 12:59:22;;;;;;;11.65;3.53;;;22.40;99.90;;;;;;4973162;29;20144;-79
2022/05/17 13:01:56;;;;;;;13.75;2.92;;;22.60;99.90;;;;;;4969147;28;20101;-78
2022/05/17 13:04:31;;;;;;;10.68;1.98;;;22.80;99.90;;;;;;4970938;28;20039;-78
2022/05/17 13:07:16;;;;;;;9.02;2.13;;;23.10;99.90;;;;;;4970409;29;20102;-78
2022/05/17 13:10:04;;;;;;;8.48;1.60;;;23.00;99.90;;;;;;4986070;28;20049;-78
2022/05/17 13:12:35;;;;;;;9.50;1.45;;;23.10;99.90;;;;;;4955299;29;20091;-78
2022/05/17 13:15:11;;;;;;;7.55;1.33;;;23.30;99.90;;;;;;4969317;29;20131;-77
2022/05/17 13:17:40;;;;;;;9.07;1.50;;;23.50;99.90;;;;;;4965966;28;20039;-80
2022/05/17 13:20:12;;;;;;;6.28;1.77;;;23.30;99.90;;;;;;4967088;29;20051;-80